createdAt,value
2018-07-02T00:00:09.156Z,51.90
2018-07-02T00:02:37.447Z,52.40
2018-07-02T00:05:06.008Z,52.80
2018-07-02T00:07:34.217Z,52.90
2018-07-02T00:10:02.504Z,53.60
2018-07-02T00:12:30.736Z,53.30
2018-07-02T00:14:58.935Z,53.50
2018-07-02T00:17:27.252Z,53.90
2018-07-02T00:19:55.459Z,54.20
2018-07-02T00:22:23.742Z,54.30
2018-07-02T00:24:51.952Z,54.80
2018-07-02T00:27:20.132Z,55.30
2018-07-02T00:29:48.317Z,55.70
2018-07-02T00:32:16.551Z,55.80
2018-07-02T00:34:44.734Z,55.70
2018-07-02T00:37:12.903Z,55.60
2018-07-02T00:39:41.118Z,55.70
2018-07-02T00:42:09.389Z,55.70
2018-07-02T00:44:37.589Z,55.70
2018-07-02T00:47:05.747Z,55.40
2018-07-02T00:49:33.871Z,55.40
2018-07-02T00:52:02.078Z,55.40
2018-07-02T00:54:30.279Z,56.20
2018-07-02T00:56:59.110Z,55.70
2018-07-02T00:59:27.347Z,55.70
2018-07-02T01:01:56.626Z,55.90
2018-07-02T01:04:24.775Z,56.00
2018-07-02T01:06:53.411Z,55.70
2018-07-02T01:09:21.567Z,55.50
2018-07-02T01:11:50.011Z,55.90
2018-07-02T01:14:18.684Z,56.00
2018-07-02T01:16:47.232Z,56.00
2018-07-02T01:19:15.444Z,55.90
2018-07-02T01:21:43.895Z,56.00
2018-07-02T01:24:12.204Z,56.10
2018-07-02T01:26:40.438Z,56.20
2018-07-02T01:29:09.000Z,56.10
2018-07-02T01:31:37.197Z,56.00
2018-07-02T01:34:05.698Z,56.30
2018-07-02T01:36:34.042Z,56.80
2018-07-02T01:39:03.167Z,57.00
2018-07-02T01:41:31.704Z,57.40
2018-07-02T01:43:59.872Z,57.30
2018-07-02T01:46:27.989Z,57.80
2018-07-02T01:48:56.083Z,58.00
2018-07-02T01:51:24.301Z,58.20
2018-07-02T01:53:52.546Z,58.50
2018-07-02T01:56:21.229Z,58.80
2018-07-02T01:58:49.420Z,58.70
2018-07-02T02:01:17.633Z,59.00
2018-07-02T02:03:45.900Z,59.40
2018-07-02T02:06:14.234Z,59.40
2018-07-02T02:08:42.674Z,59.60
2018-07-02T02:11:11.050Z,60.00
2018-07-02T02:13:39.711Z,60.10
2018-07-02T02:16:07.853Z,60.40
2018-07-02T02:18:36.459Z,60.40
2018-07-02T02:21:05.001Z,60.70
2018-07-02T02:23:33.255Z,61.10
2018-07-02T02:26:01.571Z,61.20
2018-07-02T02:28:30.294Z,61.50
2018-07-02T02:30:58.486Z,61.80
2018-07-02T02:33:26.663Z,61.70
2018-07-02T02:35:54.843Z,61.90
2018-07-02T02:38:23.233Z,62.30
2018-07-02T02:40:51.565Z,62.70
2018-07-02T02:43:19.747Z,62.60
2018-07-02T02:45:48.110Z,62.60
2018-07-02T02:48:16.388Z,63.10
2018-07-02T02:50:44.952Z,62.40
2018-07-02T02:53:13.216Z,62.80
2018-07-02T02:55:41.444Z,63.20
2018-07-02T02:58:09.865Z,63.30
2018-07-02T03:00:38.137Z,63.20
2018-07-02T03:03:06.356Z,63.00
2018-07-02T03:05:34.756Z,63.30
2018-07-02T03:08:03.852Z,63.80
2018-07-02T03:10:32.094Z,63.60
2018-07-02T03:13:00.297Z,63.80
2018-07-02T03:15:28.513Z,64.00
2018-07-02T03:17:56.681Z,64.70
2018-07-02T03:20:24.986Z,65.10
2018-07-02T03:22:53.118Z,65.30
2018-07-02T03:25:21.363Z,64.90
2018-07-02T03:27:49.644Z,64.80
2018-07-02T03:30:18.382Z,65.00
2018-07-02T03:32:46.930Z,65.10
2018-07-02T03:35:15.189Z,65.50
2018-07-02T03:37:43.610Z,65.40
2018-07-02T03:40:11.749Z,65.30
2018-07-02T03:42:39.938Z,65.30
2018-07-02T03:45:08.173Z,65.50
2018-07-02T03:47:36.325Z,65.60
2018-07-02T03:50:04.791Z,65.70
2018-07-02T03:52:33.188Z,65.60
2018-07-02T03:55:01.608Z,65.20
2018-07-02T03:57:30.211Z,64.90
2018-07-02T03:59:58.483Z,64.60
2018-07-02T04:02:26.789Z,64.40
2018-07-02T04:04:55.010Z,64.40
2018-07-02T04:07:23.296Z,64.60
2018-07-02T04:09:51.474Z,64.00
2018-07-02T04:12:19.751Z,63.00
2018-07-02T04:14:47.996Z,62.70
2018-07-02T04:17:16.494Z,62.00
2018-07-02T04:19:44.683Z,61.50
2018-07-02T04:22:13.010Z,61.30
2018-07-02T04:24:41.496Z,60.90
2018-07-02T04:27:09.765Z,60.70
2018-07-02T04:29:38.070Z,60.10
2018-07-02T04:32:06.662Z,60.30
2018-07-02T04:34:34.933Z,60.30
2018-07-02T04:37:03.187Z,60.20
2018-07-02T04:39:31.528Z,60.30
2018-07-02T04:41:59.761Z,60.50
2018-07-02T04:44:27.959Z,60.40
2018-07-02T04:46:56.311Z,60.30
2018-07-02T04:49:24.494Z,60.30
2018-07-02T04:51:53.046Z,60.10
2018-07-02T04:54:22.466Z,59.80
2018-07-02T04:59:18.532Z,59.30
2018-07-02T05:01:46.731Z,59.30
2018-07-02T05:04:15.042Z,59.60
2018-07-02T05:06:43.259Z,59.20
2018-07-02T05:09:11.522Z,59.10
2018-07-02T05:11:39.633Z,58.80
2018-07-02T05:14:07.798Z,59.30
2018-07-02T05:16:36.877Z,59.00
2018-07-02T05:19:05.036Z,59.20
2018-07-02T05:21:33.399Z,59.20
2018-07-02T05:24:01.566Z,59.60
2018-07-02T05:26:29.787Z,59.30
2018-07-02T05:28:58.404Z,59.50
2018-07-02T05:31:26.812Z,59.60
2018-07-02T05:33:55.033Z,59.90
2018-07-02T05:36:23.245Z,59.60
2018-07-02T05:38:51.506Z,59.30
2018-07-02T05:41:19.892Z,59.40
2018-07-02T05:43:48.171Z,60.20
2018-07-02T05:46:16.383Z,60.70
2018-07-02T05:48:44.689Z,60.90
2018-07-02T05:51:12.857Z,61.20
2018-07-02T05:53:40.975Z,61.80
2018-07-02T05:56:09.205Z,62.10
2018-07-02T05:58:37.387Z,62.20
2018-07-02T06:01:05.626Z,62.10
2018-07-02T06:03:33.913Z,62.30
2018-07-02T06:06:02.164Z,62.60
2018-07-02T06:08:30.338Z,62.30
2018-07-02T06:10:58.462Z,62.60
2018-07-02T06:13:27.518Z,62.20
2018-07-02T06:15:56.275Z,62.90
2018-07-02T06:18:24.715Z,62.90
2018-07-02T06:20:53.580Z,62.30
2018-07-02T06:23:21.972Z,62.30
2018-07-02T06:25:50.355Z,61.80
2018-07-02T06:28:18.618Z,62.90
2018-07-02T06:33:15.614Z,55.60
2018-07-02T06:35:43.821Z,54.70
2018-07-02T06:38:12.687Z,58.40
2018-07-02T06:40:41.098Z,55.50
2018-07-02T06:43:09.382Z,52.90
2018-07-02T06:45:37.509Z,53.00
2018-07-02T06:48:05.864Z,49.60
2018-07-02T06:50:34.461Z,52.00
2018-07-02T06:53:02.717Z,47.60
2018-07-02T06:55:30.985Z,50.90
2018-07-02T06:57:59.201Z,47.70
2018-07-02T07:00:28.107Z,50.20
2018-07-02T07:02:56.722Z,51.40
2018-07-02T07:05:25.005Z,47.10
2018-07-02T07:07:53.426Z,49.00
2018-07-02T07:10:21.684Z,45.50
2018-07-02T07:12:50.373Z,45.90
2018-07-02T07:15:18.847Z,49.50
2018-07-02T07:17:47.155Z,46.60
2018-07-02T07:20:15.396Z,48.90
2018-07-02T07:22:43.610Z,45.60
2018-07-02T07:25:12.058Z,46.10
2018-07-02T07:27:40.360Z,46.20
2018-07-02T07:30:08.581Z,47.70
2018-07-02T07:32:36.823Z,49.00
2018-07-02T07:35:05.224Z,50.30
2018-07-02T07:37:33.566Z,47.80
2018-07-02T07:40:01.863Z,48.10
2018-07-02T07:42:34.226Z,47.20
2018-07-02T07:45:03.140Z,46.70
2018-07-02T07:47:31.423Z,46.80
2018-07-02T07:49:59.835Z,46.50
2018-07-02T07:52:28.424Z,45.70
2018-07-02T07:54:56.938Z,46.10
2018-07-02T07:59:53.512Z,47.90
2018-07-02T08:02:21.891Z,46.40
2018-07-02T08:04:50.306Z,45.80
2018-07-02T08:07:20.385Z,45.60
2018-07-02T08:09:48.558Z,45.70
2018-07-02T08:12:16.789Z,44.80
2018-07-02T08:17:13.418Z,46.00
2018-07-02T08:19:41.592Z,44.20
2018-07-02T08:22:10.126Z,43.70
2018-07-02T08:24:38.239Z,44.40
2018-07-02T08:27:06.627Z,43.30
2018-07-02T08:29:34.769Z,44.90
2018-07-02T08:32:02.922Z,43.80
2018-07-02T08:34:31.197Z,41.70
2018-07-02T08:36:59.526Z,41.00
2018-07-02T08:39:37.100Z,39.80
2018-07-02T08:42:05.454Z,40.90
2018-07-02T08:44:33.568Z,40.90
2018-07-02T08:47:02.115Z,39.20
2018-07-02T08:49:30.222Z,39.60
2018-07-02T08:51:58.394Z,40.10
2018-07-02T08:54:26.813Z,39.70
2018-07-02T08:56:54.950Z,38.40
2018-07-02T08:59:23.118Z,38.50
2018-07-02T09:01:51.363Z,38.40
2018-07-02T09:04:19.642Z,37.70
2018-07-02T09:06:48.097Z,37.80
2018-07-02T09:09:16.342Z,37.10
2018-07-02T09:11:44.667Z,37.00
2018-07-02T09:14:12.986Z,36.40
2018-07-02T09:16:41.186Z,37.20
2018-07-02T09:21:37.879Z,35.70
2018-07-02T09:24:06.384Z,34.40
2018-07-02T09:26:35.176Z,34.40
2018-07-02T09:29:04.331Z,33.90
2018-07-02T09:31:32.688Z,34.30
2018-07-02T09:34:01.394Z,34.00
2018-07-02T09:36:30.058Z,34.30
2018-07-02T09:38:58.625Z,34.00
2018-07-02T09:41:26.900Z,34.40
2018-07-02T09:43:55.703Z,34.50
2018-07-02T09:46:23.882Z,34.70
2018-07-02T09:48:52.181Z,34.20
2018-07-02T09:51:20.366Z,35.20
2018-07-02T09:53:48.608Z,34.20
2018-07-02T09:56:16.677Z,35.00
2018-07-02T09:58:52.034Z,34.70
2018-07-02T10:01:20.361Z,34.40
2018-07-02T10:03:48.561Z,34.20
2018-07-02T10:06:16.884Z,34.10
2018-07-02T10:08:45.913Z,34.30
2018-07-02T10:11:14.182Z,34.70
2018-07-02T10:13:42.323Z,34.50
2018-07-02T10:16:10.473Z,34.50
2018-07-02T10:18:38.588Z,34.60
2018-07-02T10:21:07.026Z,34.80
2018-07-02T10:23:37.336Z,34.70
2018-07-02T10:26:03.616Z,34.70
2018-07-02T10:28:31.987Z,34.60
2018-07-02T10:31:00.320Z,34.60
2018-07-02T10:33:28.450Z,33.80
2018-07-02T10:35:56.762Z,34.60
2018-07-02T10:38:25.799Z,34.20
2018-07-02T10:40:54.035Z,33.50
2018-07-02T10:43:22.516Z,34.20
2018-07-02T10:45:51.621Z,34.80
2018-07-02T10:48:19.819Z,34.00
2018-07-02T10:50:48.393Z,33.70
2018-07-02T10:53:16.651Z,33.70
2018-07-02T10:55:45.206Z,34.00
2018-07-02T10:58:14.354Z,33.60
2018-07-02T11:00:42.624Z,34.00
2018-07-02T11:03:11.285Z,34.00
2018-07-02T11:05:39.635Z,33.00
2018-07-02T11:08:07.923Z,32.40
2018-07-02T11:10:36.215Z,33.60
2018-07-02T11:13:09.320Z,31.50
2018-07-02T11:15:38.155Z,31.80
2018-07-02T11:18:06.702Z,32.70
2018-07-02T11:20:35.163Z,32.70
2018-07-02T11:23:03.401Z,32.10
2018-07-02T11:25:31.604Z,32.00
2018-07-02T11:27:59.737Z,32.20
2018-07-02T11:30:27.925Z,32.60
2018-07-02T11:32:56.306Z,32.40
2018-07-02T11:35:24.451Z,32.80
2018-07-02T11:37:52.701Z,32.70
2018-07-02T11:42:49.150Z,31.70
2018-07-02T11:45:17.339Z,31.80
2018-07-02T11:47:45.700Z,31.70
2018-07-02T11:50:13.970Z,31.50
2018-07-02T11:52:42.085Z,32.30
2018-07-02T11:55:10.255Z,31.50
2018-07-02T11:57:38.537Z,31.70
2018-07-02T12:00:08.260Z,31.30
2018-07-02T12:02:36.625Z,31.20
2018-07-02T12:05:05.268Z,31.90
2018-07-02T12:07:33.497Z,31.60
2018-07-02T12:10:02.415Z,30.80
2018-07-02T12:12:31.140Z,30.50
2018-07-02T12:14:59.410Z,30.90
2018-07-02T12:17:27.758Z,31.30
2018-07-02T12:19:55.991Z,31.70
2018-07-02T12:22:24.510Z,30.60
2018-07-02T12:24:53.103Z,30.80
2018-07-02T12:27:21.394Z,30.40
2018-07-02T12:29:49.815Z,31.10
2018-07-02T12:32:18.113Z,30.90
2018-07-02T12:34:46.354Z,30.40
2018-07-02T12:37:14.454Z,30.30
2018-07-02T12:39:42.975Z,30.40
2018-07-02T12:42:11.192Z,31.40
2018-07-02T12:44:39.452Z,31.10
2018-07-02T12:47:08.686Z,30.80
2018-07-02T12:49:36.918Z,30.70
2018-07-02T12:52:05.178Z,30.80
2018-07-02T12:54:33.386Z,30.30
2018-07-02T12:57:03.045Z,30.30
2018-07-02T12:59:31.573Z,30.70
2018-07-02T13:01:59.683Z,30.60
2018-07-02T13:04:28.300Z,30.70
2018-07-02T13:06:56.722Z,31.10
2018-07-02T13:09:25.009Z,29.90
2018-07-02T13:11:53.267Z,29.70
2018-07-02T13:14:21.650Z,29.80
2018-07-02T13:16:50.394Z,30.10
2018-07-02T13:19:19.202Z,30.40
2018-07-02T13:21:47.406Z,30.80
2018-07-02T13:24:15.748Z,30.20
2018-07-02T13:26:44.050Z,30.70
2018-07-02T13:29:12.519Z,30.80
2018-07-02T13:31:42.723Z,29.90
2018-07-02T13:34:11.178Z,30.00
2018-07-02T13:36:40.199Z,30.00
2018-07-02T13:39:10.184Z,30.00
2018-07-02T13:41:39.140Z,30.00
2018-07-02T13:44:07.805Z,30.30
2018-07-02T13:46:36.325Z,31.00
2018-07-02T13:49:05.603Z,30.70
2018-07-02T13:51:35.257Z,30.70
2018-07-02T13:54:03.563Z,30.60
2018-07-02T13:56:33.645Z,30.20
2018-07-02T13:59:03.025Z,30.10
2018-07-02T14:01:32.154Z,29.80
2018-07-02T14:04:00.436Z,30.00
2018-07-02T14:06:28.928Z,29.40
2018-07-02T14:08:57.542Z,29.60
2018-07-02T14:11:25.977Z,29.80
2018-07-02T14:13:54.602Z,30.00
2018-07-02T14:16:23.034Z,30.00
2018-07-02T14:18:52.501Z,29.90
2018-07-02T14:21:20.967Z,29.90
2018-07-02T14:23:49.981Z,30.20
2018-07-02T14:26:18.999Z,30.80
2018-07-02T14:28:47.797Z,30.50
2018-07-02T14:31:16.375Z,30.90
2018-07-02T14:33:44.855Z,31.40
2018-07-02T14:36:13.609Z,31.20
2018-07-02T14:38:41.960Z,31.80
2018-07-02T14:41:10.645Z,31.90
2018-07-02T14:43:39.205Z,31.80
2018-07-02T14:46:07.509Z,33.00
2018-07-02T14:48:36.501Z,33.50
2018-07-02T14:51:04.897Z,34.70
2018-07-02T14:53:34.065Z,34.50
2018-07-02T14:56:02.534Z,34.60
2018-07-02T14:58:31.542Z,34.80
2018-07-02T15:01:00.496Z,35.20
2018-07-02T15:03:29.341Z,34.60
2018-07-02T15:05:58.394Z,34.50
2018-07-02T15:08:26.704Z,35.30
2018-07-02T15:10:54.924Z,35.00
2018-07-02T15:13:23.153Z,34.60
2018-07-02T15:15:51.667Z,34.60
2018-07-02T15:18:20.017Z,34.70
2018-07-02T15:20:48.304Z,34.90
2018-07-02T15:25:44.886Z,35.60
2018-07-02T15:28:13.313Z,35.60
2018-07-02T15:30:42.320Z,35.10
2018-07-02T15:33:10.600Z,34.80
2018-07-02T15:35:39.106Z,35.30
2018-07-02T15:38:07.414Z,35.30
2018-07-02T15:40:35.733Z,34.90
2018-07-02T15:43:04.273Z,35.80
2018-07-02T15:45:32.906Z,35.60
2018-07-02T15:48:01.663Z,34.80
2018-07-02T15:50:30.006Z,35.10
2018-07-02T15:52:58.459Z,35.20
2018-07-02T15:55:27.040Z,35.00
2018-07-02T15:57:55.350Z,35.50
2018-07-02T16:00:23.790Z,35.40
2018-07-02T16:02:52.059Z,35.40
2018-07-02T16:05:20.275Z,34.10
2018-07-02T16:07:48.551Z,34.70
2018-07-02T16:10:16.722Z,34.90
2018-07-02T16:12:45.087Z,34.30
2018-07-02T16:15:15.731Z,34.40
2018-07-02T16:17:45.946Z,33.60
2018-07-02T16:20:14.330Z,33.70
2018-07-02T16:22:44.484Z,32.70
2018-07-02T16:25:13.854Z,32.40
2018-07-02T16:27:42.389Z,33.60
2018-07-02T16:30:10.890Z,32.90
2018-07-02T16:32:40.956Z,33.60
2018-07-02T16:37:37.805Z,32.60
2018-07-02T16:40:06.549Z,32.30
2018-07-02T16:42:35.292Z,31.70
2018-07-02T16:45:03.836Z,31.60
2018-07-02T16:47:31.991Z,31.00
2018-07-02T16:50:00.459Z,30.20
2018-07-02T16:52:29.016Z,30.00
2018-07-02T16:54:57.632Z,29.50
2018-07-02T16:57:26.245Z,29.60
2018-07-02T16:59:55.706Z,29.50
2018-07-02T17:02:24.087Z,29.10
2018-07-02T17:04:53.824Z,28.30
2018-07-02T17:07:22.243Z,28.40
2018-07-02T17:09:51.762Z,28.70
2018-07-02T17:12:20.270Z,28.40
2018-07-02T17:14:49.442Z,28.60
2018-07-02T17:17:18.559Z,28.70
2018-07-02T17:19:48.141Z,28.40
2018-07-02T17:22:16.525Z,28.40
2018-07-02T17:24:44.818Z,28.80
2018-07-02T17:27:13.172Z,28.30
2018-07-02T17:29:41.524Z,28.00
2018-07-02T17:32:10.779Z,28.00
2018-07-02T17:34:39.120Z,28.00
2018-07-02T17:37:07.583Z,27.90
2018-07-02T17:39:40.745Z,27.40
2018-07-02T17:42:09.315Z,27.90
2018-07-02T17:44:37.662Z,27.60
2018-07-02T17:47:06.624Z,27.00
2018-07-02T17:49:34.866Z,27.40
2018-07-02T17:52:04.157Z,27.80
2018-07-02T17:54:32.503Z,27.80
2018-07-02T17:57:01.038Z,27.20
2018-07-02T18:01:59.652Z,27.50
2018-07-02T18:04:31.797Z,27.70
2018-07-02T18:07:00.812Z,27.30
2018-07-02T18:09:30.500Z,27.30
2018-07-02T18:12:00.273Z,27.10
2018-07-02T18:14:30.192Z,27.50
2018-07-02T18:17:06.200Z,27.30
2018-07-02T18:19:40.123Z,27.70
2018-07-02T18:22:10.429Z,27.90
2018-07-02T18:24:40.194Z,27.90
2018-07-02T18:27:13.203Z,27.80
2018-07-02T18:29:45.876Z,28.20
2018-07-02T18:32:14.931Z,27.90
2018-07-02T18:34:43.436Z,27.80
2018-07-02T18:37:11.702Z,28.20
2018-07-02T18:39:40.008Z,27.80
2018-07-02T18:42:08.569Z,27.60
2018-07-02T18:44:37.491Z,27.60
2018-07-02T18:47:05.831Z,28.10
2018-07-02T18:49:34.290Z,28.00
2018-07-02T18:52:03.432Z,28.10
2018-07-02T18:54:31.933Z,28.20
2018-07-02T18:57:00.319Z,28.20
2018-07-02T18:59:30.167Z,28.50
2018-07-02T19:02:02.827Z,29.20
2018-07-02T19:04:31.182Z,29.90
2018-07-02T19:07:00.604Z,30.50
2018-07-02T19:09:29.005Z,31.10
2018-07-02T19:11:58.659Z,32.80
2018-07-02T19:14:27.883Z,32.00
2018-07-02T19:16:57.022Z,32.60
2018-07-02T19:19:25.477Z,33.60
2018-07-02T19:21:54.457Z,33.70
2018-07-02T19:24:23.895Z,33.80
2018-07-02T19:26:52.329Z,34.10
2018-07-02T19:29:22.103Z,34.70
2018-07-02T19:31:51.247Z,35.20
2018-07-02T19:34:19.796Z,35.80
2018-07-02T19:36:52.952Z,37.10
2018-07-02T19:39:22.105Z,38.50
2018-07-02T19:41:51.125Z,39.90
2018-07-02T19:46:48.094Z,42.50
2018-07-02T19:49:16.327Z,43.70
2018-07-02T19:51:44.623Z,44.80
2018-07-02T19:54:12.997Z,46.20
2018-07-02T19:56:41.448Z,47.10
2018-07-02T19:59:10.001Z,48.20
2018-07-02T20:01:43.192Z,49.30
2018-07-02T20:04:11.674Z,50.20
2018-07-02T20:06:40.824Z,51.50
2018-07-02T20:09:09.207Z,52.60
2018-07-02T20:11:37.712Z,53.50
2018-07-02T20:14:06.169Z,54.50
2018-07-02T20:16:34.438Z,55.60
2018-07-02T20:19:02.712Z,56.80
2018-07-02T20:21:31.008Z,57.60
2018-07-02T20:24:00.111Z,58.70
2018-07-02T20:26:28.978Z,59.30
2018-07-02T20:28:57.291Z,59.60
2018-07-02T20:31:25.688Z,59.60
2018-07-02T20:33:53.882Z,60.60
2018-07-02T20:36:22.254Z,61.20
2018-07-02T20:38:50.675Z,61.90
2018-07-02T20:43:48.688Z,62.40
2018-07-02T20:46:17.002Z,63.10
2018-07-02T20:48:45.301Z,63.60
2018-07-02T20:51:14.714Z,63.80
2018-07-02T20:53:43.244Z,63.90
2018-07-02T20:56:12.409Z,64.30
2018-07-02T20:58:40.898Z,64.80
2018-07-02T21:01:10.226Z,64.80
2018-07-02T21:03:39.215Z,65.40
2018-07-02T21:06:07.506Z,65.60
2018-07-02T21:08:35.815Z,66.00
2018-07-02T21:11:04.038Z,66.10
2018-07-02T21:13:32.296Z,66.80
2018-07-02T21:16:01.684Z,66.70
2018-07-02T21:18:30.049Z,66.90
2018-07-02T21:20:58.425Z,67.50
2018-07-02T21:23:26.829Z,67.60
2018-07-02T21:25:57.162Z,67.90
2018-07-02T21:28:26.665Z,68.00
2018-07-02T21:30:54.901Z,68.10
2018-07-02T21:33:23.288Z,68.10
2018-07-02T21:35:51.720Z,68.20
2018-07-02T21:38:20.133Z,68.30
2018-07-02T21:43:16.636Z,68.70
2018-07-02T21:45:45.105Z,68.70
2018-07-02T21:48:14.545Z,68.60
2018-07-02T21:50:43.022Z,68.70
2018-07-02T21:53:11.540Z,68.50
2018-07-02T21:55:40.637Z,68.60
2018-07-02T21:58:13.378Z,68.60
2018-07-02T22:00:44.739Z,68.50
2018-07-02T22:03:13.289Z,68.70
2018-07-02T22:05:41.801Z,67.50
2018-07-02T22:08:11.090Z,67.10
2018-07-02T22:10:39.696Z,66.80
2018-07-02T22:13:08.267Z,66.00
2018-07-02T22:15:36.722Z,65.90
2018-07-02T22:18:05.282Z,66.10
2018-07-02T22:20:33.680Z,65.90
2018-07-02T22:23:02.058Z,65.70
2018-07-02T22:25:30.455Z,65.90
2018-07-02T22:27:58.890Z,65.60
2018-07-02T22:30:28.005Z,64.20
2018-07-02T22:32:56.244Z,62.70
2018-07-02T22:35:24.532Z,63.10
2018-07-02T22:37:52.962Z,62.70
2018-07-02T22:40:21.814Z,62.80
2018-07-02T22:42:50.258Z,62.80
2018-07-02T22:45:19.114Z,62.30
2018-07-02T22:47:47.563Z,61.70
2018-07-02T22:50:15.866Z,61.40
2018-07-02T22:52:44.280Z,59.90
2018-07-02T22:55:12.605Z,59.90
2018-07-02T22:57:41.135Z,58.30
2018-07-02T23:00:09.674Z,57.10
2018-07-02T23:02:42.474Z,55.80
2018-07-02T23:05:10.709Z,55.00
2018-07-02T23:07:38.984Z,54.60
2018-07-02T23:10:07.769Z,54.30
2018-07-02T23:12:36.035Z,54.30
2018-07-02T23:15:04.627Z,53.90
2018-07-02T23:17:32.901Z,53.60
2018-07-02T23:20:01.185Z,53.70
2018-07-02T23:23:05.138Z,53.10
2018-07-02T23:28:02.169Z,53.80
2018-07-02T23:30:31.754Z,53.80
2018-07-02T23:33:00.372Z,54.80
2018-07-02T23:35:29.479Z,55.20
2018-07-02T23:37:57.801Z,55.30
2018-07-02T23:40:26.543Z,55.10
2018-07-02T23:42:55.022Z,54.90
2018-07-02T23:45:25.650Z,55.30
2018-07-02T23:47:54.088Z,55.80
2018-07-02T23:50:22.987Z,56.20
2018-07-02T23:52:51.394Z,56.70
2018-07-02T23:55:19.643Z,57.30
2018-07-02T23:57:48.050Z,57.90
